createdAt,value
2023-01-24T00:01:02.131Z,92.00
2023-01-24T00:03:28.906Z,93.26
2023-01-24T00:05:55.386Z,91.93
2023-01-24T00:08:25.031Z,92.03
2023-01-24T00:11:10.236Z,91.97
2023-01-24T00:13:37.879Z,92.67
2023-01-24T00:16:15.917Z,91.89
2023-01-24T00:18:42.631Z,93.18
2023-01-24T00:21:15.709Z,91.80
2023-01-24T00:23:48.131Z,92.75
2023-01-24T00:26:15.261Z,92.89
2023-01-24T00:28:42.061Z,92.81
2023-01-24T00:31:08.676Z,92.64
2023-01-24T00:33:35.433Z,93.32
2023-01-24T00:36:02.727Z,93.11
2023-01-24T00:38:30.507Z,92.80
2023-01-24T00:40:57.539Z,92.01
2023-01-24T00:43:24.005Z,92.84
2023-01-24T00:45:50.437Z,92.10
2023-01-24T00:48:16.869Z,92.76
2023-01-24T00:50:43.305Z,92.85
2023-01-24T00:53:09.911Z,92.09
2023-01-24T00:55:43.498Z,93.37
2023-01-24T00:58:10.406Z,92.42
2023-01-24T01:00:39.495Z,92.63
2023-01-24T01:03:10.202Z,93.16
2023-01-24T01:05:36.580Z,92.25
2023-01-24T01:08:03.065Z,91.68
2023-01-24T01:10:29.460Z,92.02
2023-01-24T01:12:55.840Z,91.84
2023-01-24T01:15:22.570Z,91.59
2023-01-24T01:17:49.419Z,93.10
2023-01-24T01:20:15.914Z,92.24
2023-01-24T01:22:42.460Z,92.50
2023-01-24T01:25:09.327Z,91.18
2023-01-24T01:27:35.747Z,92.94
2023-01-24T01:30:02.097Z,92.67
2023-01-24T01:32:28.495Z,92.21
2023-01-24T01:34:54.951Z,91.79
2023-01-24T01:37:21.390Z,91.05
2023-01-24T01:39:47.844Z,92.89
2023-01-24T01:42:15.789Z,91.42
2023-01-24T01:44:44.325Z,91.81
2023-01-24T01:47:30.587Z,91.71
2023-01-24T01:50:19.605Z,90.68
2023-01-24T01:52:45.987Z,90.63
2023-01-24T01:55:19.622Z,90.13
2023-01-24T01:57:48.378Z,91.19
2023-01-24T02:00:18.878Z,90.18
2023-01-24T02:02:53.592Z,89.85
2023-01-24T02:05:24.906Z,90.13
2023-01-24T02:08:05.041Z,89.82
2023-01-24T02:10:51.642Z,90.31
2023-01-24T02:13:18.151Z,90.33
2023-01-24T02:16:05.191Z,90.99
2023-01-24T02:18:33.125Z,91.17
2023-01-24T02:20:59.841Z,90.56
2023-01-24T02:23:29.443Z,89.55
2023-01-24T02:26:14.666Z,90.31
2023-01-24T02:28:50.024Z,91.06
2023-01-24T02:31:16.896Z,91.27
2023-01-24T02:33:43.418Z,90.56
2023-01-24T02:36:25.646Z,91.25
2023-01-24T02:39:04.682Z,90.72
2023-01-24T02:41:39.325Z,91.57
2023-01-24T02:44:10.416Z,91.05
2023-01-24T02:46:38.211Z,90.48
2023-01-24T02:49:08.841Z,90.63
2023-01-24T02:51:53.909Z,90.19
2023-01-24T02:54:20.275Z,90.79
2023-01-24T02:57:04.981Z,90.30
2023-01-24T02:59:31.443Z,91.11
2023-01-24T03:01:57.875Z,91.25
2023-01-24T03:04:24.420Z,90.70
2023-01-24T03:06:50.823Z,91.02
2023-01-24T03:09:20.351Z,90.26
2023-01-24T03:11:47.933Z,89.70
2023-01-24T03:14:36.395Z,90.60
2023-01-24T03:17:21.193Z,91.18
2023-01-24T03:20:06.013Z,89.76
2023-01-24T03:22:50.846Z,90.03
2023-01-24T03:25:35.607Z,90.68
2023-01-24T03:28:25.135Z,90.53
2023-01-24T03:31:09.783Z,91.55
2023-01-24T03:33:54.554Z,90.34
2023-01-24T03:36:32.438Z,91.67
2023-01-24T03:39:17.544Z,90.32
2023-01-24T03:41:44.119Z,91.61
2023-01-24T03:44:10.832Z,90.55
2023-01-24T03:46:40.993Z,91.44
2023-01-24T03:49:08.471Z,90.94
2023-01-24T03:51:54.642Z,90.96
2023-01-24T03:54:21.085Z,91.04
2023-01-24T03:56:50.005Z,90.66
2023-01-24T03:59:17.227Z,92.20
2023-01-24T04:01:43.664Z,92.16
2023-01-24T04:04:10.149Z,91.60
2023-01-24T04:06:36.493Z,91.64
2023-01-24T04:09:04.102Z,92.18
2023-01-24T04:11:30.469Z,91.14
2023-01-24T04:13:56.904Z,91.98
2023-01-24T04:16:23.301Z,90.80
2023-01-24T04:18:49.708Z,90.64
2023-01-24T04:21:16.114Z,91.33
2023-01-24T04:23:42.630Z,91.66
2023-01-24T04:26:09.025Z,91.61
2023-01-24T04:28:35.658Z,91.27
2023-01-24T04:31:03.529Z,91.96
2023-01-24T04:33:30.083Z,92.14
2023-01-24T04:36:00.059Z,91.16
2023-01-24T04:38:26.873Z,91.50
2023-01-24T04:41:00.775Z,91.81
2023-01-24T04:43:27.316Z,92.32
2023-01-24T04:45:58.781Z,91.83
2023-01-24T04:48:25.272Z,90.83
2023-01-24T04:50:52.121Z,91.24
2023-01-24T04:53:18.533Z,91.24
2023-01-24T04:55:44.945Z,92.04
2023-01-24T04:58:11.328Z,91.50
2023-01-24T05:00:37.741Z,91.47
2023-01-24T05:03:04.149Z,92.45
2023-01-24T05:05:30.526Z,91.51
2023-01-24T05:07:56.955Z,91.08
2023-01-24T05:10:24.396Z,91.65
2023-01-24T05:12:50.989Z,92.83
2023-01-24T05:15:18.863Z,91.69
2023-01-24T05:17:45.402Z,91.52
2023-01-24T05:20:12.425Z,92.44
2023-01-24T05:22:38.789Z,91.20
2023-01-24T05:25:05.758Z,91.55
2023-01-24T05:27:32.115Z,91.53
2023-01-24T05:29:58.474Z,91.73
2023-01-24T05:32:24.934Z,91.10
2023-01-24T05:34:51.309Z,91.39
2023-01-24T05:37:17.751Z,91.52
2023-01-24T05:39:44.167Z,91.86
2023-01-24T05:42:10.668Z,92.03
2023-01-24T05:44:37.040Z,92.23
2023-01-24T05:47:03.561Z,91.01
2023-01-24T05:49:29.921Z,91.72
2023-01-24T05:51:56.360Z,91.75
2023-01-24T05:54:22.716Z,91.16
2023-01-24T05:56:49.143Z,92.13
2023-01-24T05:59:15.531Z,91.15
2023-01-24T06:01:41.989Z,91.47
2023-01-24T06:04:08.368Z,90.71
2023-01-24T06:06:34.895Z,92.16
2023-01-24T06:09:01.399Z,92.25
2023-01-24T06:11:28.401Z,91.94
2023-01-24T06:13:57.642Z,91.86
2023-01-24T06:16:25.799Z,91.82
2023-01-24T06:18:54.049Z,90.55
2023-01-24T06:21:23.152Z,91.98
2023-01-24T06:23:49.781Z,92.10
2023-01-24T06:26:16.431Z,91.81
2023-01-24T06:28:43.087Z,91.29
2023-01-24T06:31:22.806Z,90.45
2023-01-24T06:33:55.252Z,91.55
2023-01-24T06:36:42.341Z,91.50
2023-01-24T06:39:15.183Z,91.18
2023-01-24T06:41:42.190Z,91.83
2023-01-24T06:44:10.972Z,91.41
2023-01-24T06:46:37.636Z,91.70
2023-01-24T06:49:04.052Z,91.65
2023-01-24T06:51:30.405Z,90.97
2023-01-24T06:53:56.782Z,90.71
2023-01-24T06:56:23.165Z,91.73
2023-01-24T06:58:49.495Z,91.33
2023-01-24T07:01:15.812Z,92.32
2023-01-24T07:03:42.247Z,92.00
2023-01-24T07:06:08.655Z,91.06
2023-01-24T07:08:35.072Z,91.46
2023-01-24T07:11:01.465Z,91.14
2023-01-24T07:13:28.114Z,91.72
2023-01-24T07:15:54.522Z,91.32
2023-01-24T07:18:21.358Z,91.21
2023-01-24T07:20:48.355Z,91.83
2023-01-24T07:23:28.994Z,90.96
2023-01-24T07:25:56.198Z,91.63
2023-01-24T07:28:22.672Z,91.96
2023-01-24T07:30:49.952Z,91.00
2023-01-24T07:33:16.687Z,91.76
2023-01-24T07:35:43.559Z,91.80
2023-01-24T07:38:10.255Z,91.65
2023-01-24T07:40:37.172Z,91.48
2023-01-24T07:43:04.612Z,91.75
2023-01-24T07:45:31.534Z,91.24
2023-01-24T07:47:59.364Z,91.74
2023-01-24T07:50:27.303Z,92.41
2023-01-24T07:52:54.439Z,91.47
2023-01-24T07:55:22.419Z,92.16
2023-01-24T07:57:49.365Z,91.69
2023-01-24T08:00:16.520Z,92.36
2023-01-24T08:02:44.629Z,91.74
2023-01-24T08:05:12.054Z,91.40
2023-01-24T08:07:38.393Z,90.98
2023-01-24T08:10:05.862Z,91.72
2023-01-24T08:12:32.355Z,91.68
2023-01-24T08:14:58.837Z,92.47
2023-01-24T08:17:25.315Z,92.01
2023-01-24T08:19:56.763Z,91.78
2023-01-24T08:22:24.505Z,91.79
2023-01-24T08:24:50.885Z,90.56
2023-01-24T08:27:17.284Z,91.61
2023-01-24T08:29:43.707Z,90.97
2023-01-24T08:32:10.165Z,91.03
2023-01-24T08:34:36.601Z,90.94
2023-01-24T08:37:02.971Z,90.53
2023-01-24T08:39:29.566Z,90.47
2023-01-24T08:41:56.221Z,91.54
2023-01-24T08:44:22.758Z,90.44
2023-01-24T08:46:49.169Z,91.25
2023-01-24T08:49:15.542Z,91.54
2023-01-24T08:51:42.006Z,90.04
2023-01-24T08:54:08.428Z,91.11
2023-01-24T08:56:35.365Z,90.28
2023-01-24T08:59:01.837Z,90.24
2023-01-24T09:01:28.463Z,90.49
2023-01-24T09:04:00.097Z,89.52
2023-01-24T09:06:27.163Z,90.39
2023-01-24T09:08:55.492Z,90.29
2023-01-24T09:11:22.843Z,90.02
2023-01-24T09:13:49.331Z,89.67
2023-01-24T09:16:15.766Z,89.55
2023-01-24T09:18:42.204Z,90.28
2023-01-24T09:21:08.725Z,90.69
2023-01-24T09:23:35.312Z,90.61
2023-01-24T09:26:01.690Z,90.79
2023-01-24T09:28:28.155Z,89.85
2023-01-24T09:30:54.872Z,89.96
2023-01-24T09:33:21.527Z,89.69
2023-01-24T09:36:01.784Z,89.85
2023-01-24T09:38:30.838Z,89.82
2023-01-24T09:41:09.211Z,90.63
2023-01-24T09:43:56.177Z,90.26
2023-01-24T09:46:32.973Z,89.64
2023-01-24T09:49:28.818Z,89.39
2023-01-24T09:51:55.422Z,89.91
2023-01-24T09:54:44.703Z,89.89
2023-01-24T09:57:25.512Z,89.44
2023-01-24T09:59:56.925Z,89.76
2023-01-24T10:02:26.002Z,89.59
2023-01-24T10:04:52.432Z,89.44
2023-01-24T10:07:40.866Z,89.56
2023-01-24T10:10:07.115Z,89.04
2023-01-24T10:13:01.728Z,89.04
2023-01-24T10:15:49.598Z,88.64
2023-01-24T10:18:35.650Z,88.72
2023-01-24T10:21:17.195Z,89.23
2023-01-24T10:23:49.599Z,88.46
2023-01-24T10:26:20.447Z,88.79
2023-01-24T10:28:52.622Z,89.14
2023-01-24T10:31:31.635Z,87.79
2023-01-24T10:34:09.908Z,87.73
2023-01-24T10:37:11.482Z,86.95
2023-01-24T10:39:38.554Z,87.48
2023-01-24T10:42:26.561Z,86.80
2023-01-24T10:44:55.666Z,88.41
2023-01-24T10:47:41.984Z,86.44
2023-01-24T10:50:13.929Z,86.81
2023-01-24T10:52:40.355Z,87.64
2023-01-24T10:55:31.394Z,86.46
2023-01-24T10:57:58.553Z,87.75
2023-01-24T11:00:34.330Z,87.06
2023-01-24T11:03:17.280Z,86.13
2023-01-24T11:05:48.756Z,86.07
2023-01-24T11:08:23.899Z,86.76
2023-01-24T11:11:01.411Z,85.99
2023-01-24T11:13:35.656Z,86.40
2023-01-24T11:16:22.391Z,86.26
2023-01-24T11:19:06.491Z,86.71
2023-01-24T11:21:33.767Z,86.42
2023-01-24T11:24:20.471Z,87.66
2023-01-24T11:26:55.955Z,86.69
2023-01-24T11:29:23.103Z,86.55
2023-01-24T11:32:07.183Z,86.29
2023-01-24T11:34:48.264Z,86.63
2023-01-24T11:37:26.745Z,86.31
2023-01-24T11:39:59.093Z,87.10
2023-01-24T11:42:45.934Z,86.27
2023-01-24T11:45:30.468Z,86.48
2023-01-24T11:48:09.073Z,87.27
2023-01-24T11:50:48.695Z,86.79
2023-01-24T11:53:38.840Z,87.05
2023-01-24T11:56:21.724Z,86.15
2023-01-24T11:59:22.298Z,86.45
2023-01-24T12:02:02.216Z,86.85
2023-01-24T12:04:40.737Z,86.73
2023-01-24T12:07:26.500Z,86.61
2023-01-24T12:10:22.345Z,86.53
2023-01-24T12:13:21.126Z,87.01
2023-01-24T12:15:53.415Z,86.81
2023-01-24T12:18:53.949Z,86.62
2023-01-24T12:21:20.367Z,86.42
2023-01-24T12:24:10.181Z,86.77
2023-01-24T12:26:43.033Z,86.21
2023-01-24T12:29:18.737Z,86.58
2023-01-24T12:31:58.287Z,87.04
2023-01-24T12:34:51.917Z,86.78
2023-01-24T12:37:59.757Z,86.40
2023-01-24T12:40:35.717Z,87.19
2023-01-24T12:43:23.020Z,87.45
2023-01-24T12:45:52.288Z,86.71
2023-01-24T12:48:39.012Z,86.26
2023-01-24T12:51:22.171Z,87.24
2023-01-24T12:54:24.180Z,87.23
2023-01-24T12:57:03.552Z,87.35
2023-01-24T12:59:33.286Z,86.53
2023-01-24T13:02:44.662Z,86.46
2023-01-24T13:05:21.807Z,86.84
2023-01-24T13:08:26.667Z,86.65
2023-01-24T13:11:29.310Z,86.72
2023-01-24T13:14:01.338Z,86.97
2023-01-24T13:16:46.143Z,86.95
2023-01-24T13:19:39.256Z,86.84
2023-01-24T13:22:36.769Z,86.62
2023-01-24T13:25:12.278Z,86.93
2023-01-24T13:28:23.411Z,86.78
2023-01-24T13:31:02.040Z,86.98
2023-01-24T13:33:38.561Z,87.21
2023-01-24T13:36:07.794Z,86.79
2023-01-24T13:38:42.983Z,86.76
2023-01-24T13:41:34.799Z,87.22
2023-01-24T13:44:07.257Z,87.15
2023-01-24T13:46:42.975Z,87.02
2023-01-24T13:50:02.021Z,86.93
2023-01-24T13:52:37.195Z,87.20
2023-01-24T13:55:23.933Z,86.89
2023-01-24T13:58:08.608Z,87.73
2023-01-24T14:00:46.771Z,87.05
2023-01-24T14:03:21.361Z,87.63
2023-01-24T14:05:51.881Z,87.55
2023-01-24T14:08:21.202Z,87.88
2023-01-24T14:10:54.143Z,87.77
2023-01-24T14:13:48.452Z,87.60
2023-01-24T14:16:27.503Z,87.28
2023-01-24T14:18:59.694Z,88.12
2023-01-24T14:21:36.080Z,87.89
2023-01-24T14:24:21.272Z,88.05
2023-01-24T14:27:12.664Z,88.04
2023-01-24T14:29:42.484Z,87.93
2023-01-24T14:32:46.706Z,88.55
2023-01-24T14:35:31.017Z,88.64
2023-01-24T14:38:14.954Z,88.21
2023-01-24T14:40:42.209Z,88.32
2023-01-24T14:43:12.045Z,88.17
2023-01-24T14:45:38.484Z,88.17
2023-01-24T14:48:11.448Z,88.73
2023-01-24T14:50:39.303Z,88.34
2023-01-24T14:53:28.118Z,88.76
2023-01-24T14:55:57.326Z,88.25
2023-01-24T14:58:26.542Z,88.98
2023-01-24T15:00:55.873Z,88.94
2023-01-24T15:03:25.870Z,88.46
2023-01-24T15:05:58.898Z,89.42
2023-01-24T15:08:26.399Z,88.85
2023-01-24T15:11:24.615Z,89.34
2023-01-24T15:13:55.894Z,89.01
2023-01-24T15:16:29.582Z,89.06
2023-01-24T15:19:03.549Z,88.91
2023-01-24T15:21:38.458Z,89.06
2023-01-24T15:24:06.620Z,89.44
2023-01-24T15:26:41.453Z,89.62
2023-01-24T15:29:43.769Z,89.05
2023-01-24T15:32:34.989Z,89.43
2023-01-24T15:35:33.747Z,90.18
2023-01-24T15:38:06.148Z,89.74
2023-01-24T15:40:34.662Z,89.86
2023-01-24T15:43:20.941Z,89.93
2023-01-24T15:46:12.504Z,89.39
2023-01-24T15:48:39.620Z,90.55
2023-01-24T15:51:11.941Z,90.35
2023-01-24T15:53:40.421Z,89.96
2023-01-24T15:56:13.082Z,90.43
2023-01-24T15:58:40.174Z,90.45
2023-01-24T16:01:06.852Z,89.77
2023-01-24T16:03:33.523Z,90.50
2023-01-24T16:06:00.093Z,89.93
2023-01-24T16:08:27.226Z,90.13
2023-01-24T16:10:59.138Z,89.71
2023-01-24T16:13:33.640Z,89.35
2023-01-24T16:16:02.701Z,90.62
2023-01-24T16:18:29.113Z,90.49
2023-01-24T16:20:55.603Z,91.22
2023-01-24T16:23:22.173Z,90.91
2023-01-24T16:25:51.200Z,91.25
2023-01-24T16:28:23.210Z,91.12
2023-01-24T16:30:50.862Z,91.30
2023-01-24T16:33:19.126Z,91.57
2023-01-24T16:35:46.219Z,90.88
2023-01-24T16:38:14.778Z,90.79
2023-01-24T16:40:41.861Z,90.61
2023-01-24T16:43:22.905Z,90.12
2023-01-24T16:45:51.325Z,91.02
2023-01-24T16:48:18.222Z,90.71
2023-01-24T16:50:46.388Z,91.43
2023-01-24T16:53:14.350Z,91.17
2023-01-24T16:55:41.949Z,91.65
2023-01-24T16:58:09.815Z,90.11
2023-01-24T17:00:37.699Z,90.86
2023-01-24T17:03:04.376Z,90.71
2023-01-24T17:05:31.155Z,90.59
2023-01-24T17:07:58.400Z,91.66
2023-01-24T17:10:26.547Z,91.53
2023-01-24T17:12:52.998Z,92.26
2023-01-24T17:15:19.533Z,91.13
2023-01-24T17:17:45.873Z,92.26
2023-01-24T17:20:12.524Z,92.41
2023-01-24T17:22:40.109Z,91.68
2023-01-24T17:25:08.036Z,90.94
2023-01-24T17:27:34.748Z,91.18
2023-01-24T17:30:01.296Z,90.94
2023-01-24T17:32:28.185Z,92.07
2023-01-24T17:34:54.525Z,91.30
2023-01-24T17:37:21.172Z,90.85
2023-01-24T17:39:49.966Z,91.31
2023-01-24T17:42:16.419Z,91.50
2023-01-24T17:44:42.857Z,92.62
2023-01-24T17:47:09.380Z,92.17
2023-01-24T17:49:36.448Z,91.58
2023-01-24T17:52:02.852Z,91.03
2023-01-24T17:54:29.313Z,91.64
2023-01-24T17:56:55.670Z,91.40
2023-01-24T17:59:22.034Z,91.37
2023-01-24T18:01:48.406Z,91.89
2023-01-24T18:04:14.878Z,91.83
2023-01-24T18:06:41.304Z,91.92
2023-01-24T18:09:07.739Z,92.33
2023-01-24T18:11:34.197Z,92.23
2023-01-24T18:14:00.637Z,93.17
2023-01-24T18:16:27.062Z,91.94
2023-01-24T18:18:53.476Z,92.90
2023-01-24T18:21:22.459Z,91.45
2023-01-24T18:24:00.049Z,92.03
2023-01-24T18:26:28.699Z,92.44
2023-01-24T18:28:56.922Z,92.51
2023-01-24T18:31:23.533Z,92.75
2023-01-24T18:33:53.804Z,91.92
2023-01-24T18:36:20.344Z,92.73
2023-01-24T18:38:46.916Z,91.69
2023-01-24T18:41:14.811Z,91.90
2023-01-24T18:43:41.675Z,92.05
2023-01-24T18:46:10.798Z,92.10
2023-01-24T18:48:39.683Z,92.20
2023-01-24T18:51:11.739Z,93.13
2023-01-24T18:53:38.150Z,92.39
2023-01-24T18:56:05.719Z,92.68
2023-01-24T18:58:34.732Z,92.71
2023-01-24T19:01:09.843Z,92.26
2023-01-24T19:03:36.260Z,93.18
2023-01-24T19:06:02.660Z,92.63
2023-01-24T19:08:29.031Z,92.42
2023-01-24T19:10:55.468Z,92.77
2023-01-24T19:13:21.916Z,93.54
2023-01-24T19:15:49.393Z,92.45
2023-01-24T19:18:17.814Z,93.42
2023-01-24T19:20:44.232Z,93.61
2023-01-24T19:23:10.665Z,93.00
2023-01-24T19:25:36.999Z,92.71
2023-01-24T19:28:03.422Z,93.70
2023-01-24T19:30:29.852Z,93.87
2023-01-24T19:32:56.525Z,93.65
2023-01-24T19:35:22.892Z,93.41
2023-01-24T19:37:52.280Z,93.62
2023-01-24T19:40:19.301Z,93.75
2023-01-24T19:42:47.865Z,92.99
2023-01-24T19:45:16.250Z,93.31
2023-01-24T19:47:42.649Z,92.74
2023-01-24T19:50:09.888Z,92.47
2023-01-24T19:52:36.287Z,94.02
2023-01-24T19:55:02.933Z,93.68
2023-01-24T19:57:29.409Z,93.59
2023-01-24T19:59:56.022Z,92.82
2023-01-24T20:02:22.507Z,93.92
2023-01-24T20:04:52.933Z,92.94
2023-01-24T20:07:20.879Z,93.82
2023-01-24T20:09:47.462Z,94.00
2023-01-24T20:12:13.893Z,93.53
2023-01-24T20:14:40.266Z,93.17
2023-01-24T20:17:06.655Z,93.25
2023-01-24T20:19:33.004Z,92.88
2023-01-24T20:21:59.786Z,92.90
2023-01-24T20:24:27.047Z,93.90
2023-01-24T20:26:53.887Z,94.19
2023-01-24T20:29:20.477Z,94.18
2023-01-24T20:31:47.452Z,92.77
2023-01-24T20:34:15.415Z,93.37
2023-01-24T20:36:41.889Z,93.57
2023-01-24T20:39:09.918Z,93.02
2023-01-24T20:41:36.425Z,92.76
2023-01-24T20:44:03.800Z,93.13
2023-01-24T20:46:30.623Z,93.58
2023-01-24T20:48:59.293Z,93.91
2023-01-24T20:51:31.595Z,93.77
2023-01-24T20:53:59.679Z,93.72
2023-01-24T20:56:27.558Z,93.36
2023-01-24T20:58:55.850Z,93.87
2023-01-24T21:01:23.502Z,92.77
2023-01-24T21:03:50.232Z,92.52
2023-01-24T21:06:19.709Z,93.53
2023-01-24T21:08:47.155Z,93.54
2023-01-24T21:11:19.105Z,93.10
2023-01-24T21:13:51.614Z,94.04
2023-01-24T21:16:19.092Z,93.00
2023-01-24T21:18:51.138Z,94.23
2023-01-24T21:21:18.639Z,93.02
2023-01-24T21:23:45.156Z,93.49
2023-01-24T21:26:16.177Z,93.15
2023-01-24T21:28:44.491Z,93.34
2023-01-24T21:31:13.823Z,92.63
2023-01-24T21:33:40.645Z,93.93
2023-01-24T21:36:10.564Z,94.31
2023-01-24T21:38:36.945Z,92.47
2023-01-24T21:41:26.481Z,92.60
2023-01-24T21:43:53.174Z,92.47
2023-01-24T21:46:19.620Z,93.47
2023-01-24T21:49:04.915Z,92.55
2023-01-24T21:51:38.655Z,93.19
2023-01-24T21:54:20.395Z,93.89
2023-01-24T21:57:33.489Z,93.28
2023-01-24T22:00:02.514Z,92.65
2023-01-24T22:02:31.196Z,93.95
2023-01-24T22:04:58.788Z,93.31
2023-01-24T22:07:27.242Z,92.38
2023-01-24T22:09:56.052Z,93.52
2023-01-24T22:12:22.891Z,93.83
2023-01-24T22:14:50.804Z,93.77
2023-01-24T22:17:23.028Z,94.05
2023-01-24T22:19:57.594Z,93.03
2023-01-24T22:22:58.377Z,92.49
2023-01-24T22:25:38.461Z,93.84
2023-01-24T22:28:05.177Z,93.97
2023-01-24T22:30:32.716Z,92.99
2023-01-24T22:33:00.984Z,94.12
2023-01-24T22:35:28.253Z,93.27
2023-01-24T22:37:57.912Z,92.86
2023-01-24T22:40:25.830Z,94.07
2023-01-24T22:42:56.989Z,93.66
2023-01-24T22:45:28.290Z,93.82
2023-01-24T22:47:55.484Z,93.58
2023-01-24T22:50:22.489Z,94.45
2023-01-24T22:52:49.635Z,94.44
2023-01-24T22:55:16.895Z,93.98
2023-01-24T22:57:43.323Z,92.91
2023-01-24T23:00:12.209Z,94.31
2023-01-24T23:02:38.846Z,93.62
2023-01-24T23:05:05.990Z,93.27
2023-01-24T23:07:32.725Z,94.10
2023-01-24T23:09:59.115Z,93.37
2023-01-24T23:12:48.681Z,94.19
2023-01-24T23:15:33.454Z,93.50
2023-01-24T23:18:07.528Z,92.95
2023-01-24T23:20:52.686Z,94.43
2023-01-24T23:23:19.059Z,93.97
2023-01-24T23:25:45.404Z,93.43
2023-01-24T23:28:11.788Z,94.34
2023-01-24T23:30:43.280Z,93.99
2023-01-24T23:33:33.777Z,93.05
2023-01-24T23:36:01.723Z,93.24
2023-01-24T23:38:30.036Z,94.26
2023-01-24T23:40:56.455Z,93.53
2023-01-24T23:43:22.965Z,93.06
2023-01-24T23:45:49.438Z,94.39
2023-01-24T23:48:15.833Z,92.93
2023-01-24T23:50:42.215Z,93.64
2023-01-24T23:53:08.630Z,93.96
2023-01-24T23:55:35.014Z,93.93
2023-01-24T23:58:02.668Z,94.06
